sensor_id;sensor_type;location;lat;lon;timestamp;temperature;humidity
56332;DHT22;42237;53.340;6.812;2022-08-03T00:01:36;18.90;99.90
56332;DHT22;42237;53.340;6.812;2022-08-03T00:04:03;18.90;99.90
56332;DHT22;42237;53.340;6.812;2022-08-03T00:06:29;18.90;99.90
56332;DHT22;42237;53.340;6.812;2022-08-03T00:08:54;19.10;99.90
56332;DHT22;42237;53.340;6.812;2022-08-03T00:11:20;18.80;99.90
56332;DHT22;42237;53.340;6.812;2022-08-03T00:13:46;18.80;99.90
56332;DHT22;42237;53.340;6.812;2022-08-03T00:16:14;18.80;99.90
56332;DHT22;42237;53.340;6.812;2022-08-03T00:18:40;18.80;99.90
56332;DHT22;42237;53.340;6.812;2022-08-03T00:21:06;18.80;99.90
56332;DHT22;42237;53.340;6.812;2022-08-03T00:23:32;18.80;99.90
56332;DHT22;42237;53.340;6.812;2022-08-03T00:25:58;18.80;99.90
56332;DHT22;42237;53.340;6.812;2022-08-03T00:28:24;18.80;99.90
56332;DHT22;42237;53.340;6.812;2022-08-03T00:30:49;18.80;99.90
56332;DHT22;42237;53.340;6.812;2022-08-03T00:33:15;18.70;99.90
56332;DHT22;42237;53.340;6.812;2022-08-03T00:35:44;18.70;99.90
56332;DHT22;42237;53.340;6.812;2022-08-03T00:38:10;18.70;99.90
56332;DHT22;42237;53.340;6.812;2022-08-03T00:40:35;18.70;99.90
56332;DHT22;42237;53.340;6.812;2022-08-03T00:43:03;18.70;99.90
56332;DHT22;42237;53.340;6.812;2022-08-03T00:45:35;18.70;99.90
56332;DHT22;42237;53.340;6.812;2022-08-03T00:48:02;18.70;99.90
56332;DHT22;42237;53.340;6.812;2022-08-03T00:50:29;18.70;99.90
56332;DHT22;42237;53.340;6.812;2022-08-03T00:52:57;18.70;99.90
56332;DHT22;42237;53.340;6.812;2022-08-03T00:55:24;18.70;99.90
56332;DHT22;42237;53.340;6.812;2022-08-03T00:57:50;18.70;99.90
56332;DHT22;42237;53.340;6.812;2022-08-03T01:00:20;18.70;99.90
56332;DHT22;42237;53.340;6.812;2022-08-03T01:02:47;18.70;99.90
56332;DHT22;42237;53.340;6.812;2022-08-03T01:05:13;18.60;99.90
56332;DHT22;42237;53.340;6.812;2022-08-03T01:10:39;18.60;99.90
56332;DHT22;42237;53.340;6.812;2022-08-03T01:16:22;18.60;99.90
56332;DHT22;42237;53.340;6.812;2022-08-03T01:24:36;18.50;99.90
56332;DHT22;42237;53.340;6.812;2022-08-03T01:27:20;18.50;99.90
56332;DHT22;42237;53.340;6.812;2022-08-03T01:30:05;18.40;99.90
56332;DHT22;42237;53.340;6.812;2022-08-03T01:32:54;18.50;99.90
56332;DHT22;42237;53.340;6.812;2022-08-03T01:35:35;18.40;99.90
56332;DHT22;42237;53.340;6.812;2022-08-03T01:38:11;18.40;99.90
56332;DHT22;42237;53.340;6.812;2022-08-03T01:40:39;18.40;99.90
56332;DHT22;42237;53.340;6.812;2022-08-03T01:43:07;18.30;99.90
56332;DHT22;42237;53.340;6.812;2022-08-03T01:45:34;18.30;99.90
56332;DHT22;42237;53.340;6.812;2022-08-03T01:48:01;18.30;99.90
56332;DHT22;42237;53.340;6.812;2022-08-03T01:50:29;18.30;99.90
56332;DHT22;42237;53.340;6.812;2022-08-03T01:52:56;18.30;99.90
56332;DHT22;42237;53.340;6.812;2022-08-03T01:55:24;18.20;99.90
56332;DHT22;42237;53.340;6.812;2022-08-03T01:57:53;18.20;99.90
56332;DHT22;42237;53.340;6.812;2022-08-03T02:00:19;18.20;99.90
56332;DHT22;42237;53.340;6.812;2022-08-03T02:02:48;18.20;99.90
56332;DHT22;42237;53.340;6.812;2022-08-03T02:05:15;18.20;99.90
56332;DHT22;42237;53.340;6.812;2022-08-03T02:07:43;18.20;99.90
56332;DHT22;42237;53.340;6.812;2022-08-03T02:10:15;18.10;99.90
56332;DHT22;42237;53.340;6.812;2022-08-03T02:12:44;18.00;99.90
56332;DHT22;42237;53.340;6.812;2022-08-03T02:15:11;18.10;99.90
56332;DHT22;42237;53.340;6.812;2022-08-03T02:17:39;18.10;99.90
56332;DHT22;42237;53.340;6.812;2022-08-03T02:20:07;18.00;99.90
56332;DHT22;42237;53.340;6.812;2022-08-03T02:22:34;18.00;99.90
56332;DHT22;42237;53.340;6.812;2022-08-03T02:25:01;18.00;99.90
56332;DHT22;42237;53.340;6.812;2022-08-03T02:27:28;18.00;99.90
56332;DHT22;42237;53.340;6.812;2022-08-03T02:30:04;18.00;99.90
56332;DHT22;42237;53.340;6.812;2022-08-03T02:32:38;18.00;99.90
56332;DHT22;42237;53.340;6.812;2022-08-03T02:35:08;18.00;99.90
56332;DHT22;42237;53.340;6.812;2022-08-03T02:37:41;17.90;99.90
56332;DHT22;42237;53.340;6.812;2022-08-03T02:40:09;17.90;99.90
56332;DHT22;42237;53.340;6.812;2022-08-03T02:42:37;17.90;99.90
56332;DHT22;42237;53.340;6.812;2022-08-03T02:45:06;17.90;99.90
56332;DHT22;42237;53.340;6.812;2022-08-03T02:47:36;17.90;99.90
56332;DHT22;42237;53.340;6.812;2022-08-03T02:50:03;17.90;99.90
56332;DHT22;42237;53.340;6.812;2022-08-03T02:52:32;17.90;99.90
56332;DHT22;42237;53.340;6.812;2022-08-03T02:55:00;17.80;99.90
56332;DHT22;42237;53.340;6.812;2022-08-03T02:57:27;17.80;99.90
56332;DHT22;42237;53.340;6.812;2022-08-03T02:59:54;17.80;99.90
56332;DHT22;42237;53.340;6.812;2022-08-03T03:02:21;17.80;99.90
56332;DHT22;42237;53.340;6.812;2022-08-03T03:04:49;17.80;99.90
56332;DHT22;42237;53.340;6.812;2022-08-03T03:07:16;17.60;99.90
56332;DHT22;42237;53.340;6.812;2022-08-03T03:09:42;17.80;99.90
56332;DHT22;42237;53.340;6.812;2022-08-03T03:12:10;17.80;99.90
56332;DHT22;42237;53.340;6.812;2022-08-03T03:14:37;17.80;99.90
56332;DHT22;42237;53.340;6.812;2022-08-03T03:17:05;17.80;99.90
56332;DHT22;42237;53.340;6.812;2022-08-03T03:19:32;17.80;99.90
56332;DHT22;42237;53.340;6.812;2022-08-03T03:22:00;17.80;99.90
56332;DHT22;42237;53.340;6.812;2022-08-03T03:24:29;17.80;99.90
56332;DHT22;42237;53.340;6.812;2022-08-03T03:26:56;17.80;99.90
56332;DHT22;42237;53.340;6.812;2022-08-03T03:29:22;17.80;99.90
56332;DHT22;42237;53.340;6.812;2022-08-03T03:31:48;17.80;99.90
56332;DHT22;42237;53.340;6.812;2022-08-03T03:34:14;17.70;99.90
56332;DHT22;42237;53.340;6.812;2022-08-03T03:36:40;17.80;99.90
56332;DHT22;42237;53.340;6.812;2022-08-03T03:39:05;17.70;99.90
56332;DHT22;42237;53.340;6.812;2022-08-03T03:41:31;17.70;99.90
56332;DHT22;42237;53.340;6.812;2022-08-03T03:43:57;17.70;99.90
56332;DHT22;42237;53.340;6.812;2022-08-03T03:46:23;17.70;99.90
56332;DHT22;42237;53.340;6.812;2022-08-03T03:48:50;17.70;99.90
56332;DHT22;42237;53.340;6.812;2022-08-03T03:51:15;17.70;99.90
56332;DHT22;42237;53.340;6.812;2022-08-03T03:53:58;17.70;99.90
56332;DHT22;42237;53.340;6.812;2022-08-03T03:56:25;17.70;99.90
56332;DHT22;42237;53.340;6.812;2022-08-03T03:58:51;17.70;99.90
56332;DHT22;42237;53.340;6.812;2022-08-03T04:01:17;17.70;99.90
56332;DHT22;42237;53.340;6.812;2022-08-03T04:03:43;17.70;99.90
56332;DHT22;42237;53.340;6.812;2022-08-03T04:06:09;17.70;99.90
56332;DHT22;42237;53.340;6.812;2022-08-03T04:08:54;17.70;99.90
56332;DHT22;42237;53.340;6.812;2022-08-03T04:11:51;17.70;99.90
56332;DHT22;42237;53.340;6.812;2022-08-03T04:16:52;17.70;99.90
56332;DHT22;42237;53.340;6.812;2022-08-03T04:19:25;17.70;99.90
56332;DHT22;42237;53.340;6.812;2022-08-03T04:21:56;17.70;99.90
56332;DHT22;42237;53.340;6.812;2022-08-03T04:24:26;17.70;99.90
56332;DHT22;42237;53.340;6.812;2022-08-03T04:26:55;17.70;99.90
56332;DHT22;42237;53.340;6.812;2022-08-03T04:29:25;17.70;99.90
56332;DHT22;42237;53.340;6.812;2022-08-03T04:31:52;17.80;99.90
56332;DHT22;42237;53.340;6.812;2022-08-03T04:34:21;17.80;99.90
56332;DHT22;42237;53.340;6.812;2022-08-03T04:36:49;17.80;99.90
56332;DHT22;42237;53.340;6.812;2022-08-03T04:39:22;17.80;99.90
56332;DHT22;42237;53.340;6.812;2022-08-03T04:41:53;17.90;99.90
56332;DHT22;42237;53.340;6.812;2022-08-03T04:44:21;17.90;99.90
56332;DHT22;42237;53.340;6.812;2022-08-03T04:46:48;17.90;99.90
56332;DHT22;42237;53.340;6.812;2022-08-03T04:49:14;17.90;99.90
56332;DHT22;42237;53.340;6.812;2022-08-03T04:51:40;17.90;99.90
56332;DHT22;42237;53.340;6.812;2022-08-03T04:54:11;18.00;99.90
56332;DHT22;42237;53.340;6.812;2022-08-03T04:56:39;18.00;99.90
56332;DHT22;42237;53.340;6.812;2022-08-03T04:59:06;18.00;99.90
56332;DHT22;42237;53.340;6.812;2022-08-03T05:01:32;18.00;99.90
56332;DHT22;42237;53.340;6.812;2022-08-03T05:04:01;18.10;99.90
56332;DHT22;42237;53.340;6.812;2022-08-03T05:06:26;18.10;99.90
56332;DHT22;42237;53.340;6.812;2022-08-03T05:08:52;18.10;99.90
56332;DHT22;42237;53.340;6.812;2022-08-03T05:11:18;18.10;99.90
56332;DHT22;42237;53.340;6.812;2022-08-03T05:13:44;18.20;99.90
56332;DHT22;42237;53.340;6.812;2022-08-03T05:16:11;18.20;99.90
56332;DHT22;42237;53.340;6.812;2022-08-03T05:18:38;18.30;99.90
56332;DHT22;42237;53.340;6.812;2022-08-03T05:21:04;18.30;99.90
56332;DHT22;42237;53.340;6.812;2022-08-03T05:23:30;18.30;99.90
56332;DHT22;42237;53.340;6.812;2022-08-03T05:25:56;18.40;99.90
56332;DHT22;42237;53.340;6.812;2022-08-03T05:28:22;18.40;99.90
56332;DHT22;42237;53.340;6.812;2022-08-03T05:30:47;18.40;99.90
56332;DHT22;42237;53.340;6.812;2022-08-03T05:33:13;18.40;99.90
56332;DHT22;42237;53.340;6.812;2022-08-03T05:35:39;18.50;99.90
56332;DHT22;42237;53.340;6.812;2022-08-03T05:38:05;18.50;99.90
56332;DHT22;42237;53.340;6.812;2022-08-03T05:40:31;18.60;99.90
56332;DHT22;42237;53.340;6.812;2022-08-03T05:42:57;18.60;99.90
56332;DHT22;42237;53.340;6.812;2022-08-03T05:45:23;18.60;99.90
56332;DHT22;42237;53.340;6.812;2022-08-03T05:47:50;18.70;99.90
56332;DHT22;42237;53.340;6.812;2022-08-03T05:50:17;18.70;99.90
56332;DHT22;42237;53.340;6.812;2022-08-03T05:52:43;18.70;99.90
56332;DHT22;42237;53.340;6.812;2022-08-03T05:55:10;18.80;99.90
56332;DHT22;42237;53.340;6.812;2022-08-03T05:57:36;18.90;99.90
56332;DHT22;42237;53.340;6.812;2022-08-03T06:00:08;18.90;99.90
56332;DHT22;42237;53.340;6.812;2022-08-03T06:02:34;18.90;99.90
56332;DHT22;42237;53.340;6.812;2022-08-03T06:05:00;18.90;99.90
56332;DHT22;42237;53.340;6.812;2022-08-03T06:07:26;19.00;99.90
56332;DHT22;42237;53.340;6.812;2022-08-03T06:09:52;19.00;99.90
56332;DHT22;42237;53.340;6.812;2022-08-03T06:12:20;19.10;99.90
56332;DHT22;42237;53.340;6.812;2022-08-03T06:14:48;19.10;99.90
56332;DHT22;42237;53.340;6.812;2022-08-03T06:17:14;19.10;99.90
56332;DHT22;42237;53.340;6.812;2022-08-03T06:19:40;19.20;99.90
56332;DHT22;42237;53.340;6.812;2022-08-03T06:22:05;19.20;99.90
56332;DHT22;42237;53.340;6.812;2022-08-03T06:24:31;19.30;99.90
56332;DHT22;42237;53.340;6.812;2022-08-03T06:26:57;19.30;99.90
56332;DHT22;42237;53.340;6.812;2022-08-03T06:29:23;19.40;99.90
56332;DHT22;42237;53.340;6.812;2022-08-03T06:31:49;19.40;99.90
56332;DHT22;42237;53.340;6.812;2022-08-03T06:34:14;19.50;99.90
56332;DHT22;42237;53.340;6.812;2022-08-03T06:36:40;19.50;99.90
56332;DHT22;42237;53.340;6.812;2022-08-03T06:39:06;19.60;99.90
56332;DHT22;42237;53.340;6.812;2022-08-03T06:41:32;19.50;99.90
56332;DHT22;42237;53.340;6.812;2022-08-03T06:43:58;19.60;99.90
56332;DHT22;42237;53.340;6.812;2022-08-03T06:46:23;19.70;99.90
56332;DHT22;42237;53.340;6.812;2022-08-03T06:48:49;19.70;99.90
56332;DHT22;42237;53.340;6.812;2022-08-03T06:51:17;19.80;99.90
56332;DHT22;42237;53.340;6.812;2022-08-03T06:53:43;19.80;99.90
56332;DHT22;42237;53.340;6.812;2022-08-03T06:56:08;19.90;99.90
56332;DHT22;42237;53.340;6.812;2022-08-03T06:58:34;19.90;99.90
56332;DHT22;42237;53.340;6.812;2022-08-03T07:01:00;19.90;99.90
56332;DHT22;42237;53.340;6.812;2022-08-03T07:03:26;20.00;99.90
56332;DHT22;42237;53.340;6.812;2022-08-03T07:05:51;20.00;99.90
56332;DHT22;42237;53.340;6.812;2022-08-03T07:08:17;20.10;99.90
56332;DHT22;42237;53.340;6.812;2022-08-03T07:10:44;20.10;99.90
56332;DHT22;42237;53.340;6.812;2022-08-03T07:13:10;20.20;99.90
56332;DHT22;42237;53.340;6.812;2022-08-03T07:15:36;20.20;99.90
56332;DHT22;42237;53.340;6.812;2022-08-03T07:18:01;20.30;99.90
56332;DHT22;42237;53.340;6.812;2022-08-03T07:20:27;20.30;99.90
56332;DHT22;42237;53.340;6.812;2022-08-03T07:22:53;20.40;99.90
56332;DHT22;42237;53.340;6.812;2022-08-03T07:25:19;20.40;99.90
56332;DHT22;42237;53.340;6.812;2022-08-03T07:27:46;20.50;99.90
56332;DHT22;42237;53.340;6.812;2022-08-03T07:30:13;20.50;99.90
56332;DHT22;42237;53.340;6.812;2022-08-03T07:32:39;20.60;99.90
56332;DHT22;42237;53.340;6.812;2022-08-03T07:35:06;20.60;99.90
56332;DHT22;42237;53.340;6.812;2022-08-03T07:37:32;20.70;99.90
56332;DHT22;42237;53.340;6.812;2022-08-03T07:40:02;20.70;99.90
56332;DHT22;42237;53.340;6.812;2022-08-03T07:42:29;20.80;99.90
56332;DHT22;42237;53.340;6.812;2022-08-03T07:44:55;20.90;99.90
56332;DHT22;42237;53.340;6.812;2022-08-03T07:47:26;20.90;99.90
56332;DHT22;42237;53.340;6.812;2022-08-03T07:49:53;20.90;99.90
56332;DHT22;42237;53.340;6.812;2022-08-03T07:52:19;21.00;99.90
56332;DHT22;42237;53.340;6.812;2022-08-03T07:55:05;21.10;99.90
56332;DHT22;42237;53.340;6.812;2022-08-03T07:57:31;21.10;99.90
56332;DHT22;42237;53.340;6.812;2022-08-03T07:59:57;21.10;99.90
56332;DHT22;42237;53.340;6.812;2022-08-03T08:02:23;21.20;99.90
56332;DHT22;42237;53.340;6.812;2022-08-03T08:04:48;21.20;99.90
56332;DHT22;42237;53.340;6.812;2022-08-03T08:07:14;21.20;99.90
56332;DHT22;42237;53.340;6.812;2022-08-03T08:09:39;21.20;99.90
56332;DHT22;42237;53.340;6.812;2022-08-03T08:12:05;21.30;99.90
56332;DHT22;42237;53.340;6.812;2022-08-03T08:14:33;21.40;99.90
56332;DHT22;42237;53.340;6.812;2022-08-03T08:16:59;21.40;99.90
56332;DHT22;42237;53.340;6.812;2022-08-03T08:19:24;21.50;99.90
56332;DHT22;42237;53.340;6.812;2022-08-03T08:21:50;21.50;99.90
56332;DHT22;42237;53.340;6.812;2022-08-03T08:24:16;21.60;99.90
56332;DHT22;42237;53.340;6.812;2022-08-03T08:26:41;21.60;99.90
56332;DHT22;42237;53.340;6.812;2022-08-03T08:29:07;21.70;99.90
56332;DHT22;42237;53.340;6.812;2022-08-03T08:31:33;21.70;99.90
56332;DHT22;42237;53.340;6.812;2022-08-03T08:33:58;21.70;99.90
56332;DHT22;42237;53.340;6.812;2022-08-03T08:36:24;21.80;99.90
56332;DHT22;42237;53.340;6.812;2022-08-03T08:38:50;21.80;99.90
56332;DHT22;42237;53.340;6.812;2022-08-03T08:41:16;21.90;99.90
56332;DHT22;42237;53.340;6.812;2022-08-03T08:43:42;22.00;99.90
56332;DHT22;42237;53.340;6.812;2022-08-03T08:46:11;22.00;99.90
56332;DHT22;42237;53.340;6.812;2022-08-03T08:48:40;22.10;99.90
56332;DHT22;42237;53.340;6.812;2022-08-03T08:51:07;22.10;99.90
56332;DHT22;42237;53.340;6.812;2022-08-03T08:53:36;22.20;99.90
56332;DHT22;42237;53.340;6.812;2022-08-03T08:56:03;22.20;99.90
56332;DHT22;42237;53.340;6.812;2022-08-03T08:58:35;22.30;99.90
56332;DHT22;42237;53.340;6.812;2022-08-03T09:01:01;22.40;99.90
56332;DHT22;42237;53.340;6.812;2022-08-03T09:03:27;22.40;99.90
56332;DHT22;42237;53.340;6.812;2022-08-03T09:05:53;22.50;99.90
56332;DHT22;42237;53.340;6.812;2022-08-03T09:08:20;22.50;99.90
56332;DHT22;42237;53.340;6.812;2022-08-03T09:10:47;22.60;99.90
56332;DHT22;42237;53.340;6.812;2022-08-03T09:13:13;22.60;99.90
56332;DHT22;42237;53.340;6.812;2022-08-03T09:15:39;22.70;99.90
56332;DHT22;42237;53.340;6.812;2022-08-03T09:18:06;22.70;99.90
56332;DHT22;42237;53.340;6.812;2022-08-03T09:20:34;22.80;99.90
56332;DHT22;42237;53.340;6.812;2022-08-03T09:23:06;22.80;99.90
56332;DHT22;42237;53.340;6.812;2022-08-03T09:25:36;22.80;99.90
56332;DHT22;42237;53.340;6.812;2022-08-03T09:28:13;22.90;99.90
56332;DHT22;42237;53.340;6.812;2022-08-03T09:30:41;22.90;99.90
56332;DHT22;42237;53.340;6.812;2022-08-03T09:33:09;23.00;99.90
56332;DHT22;42237;53.340;6.812;2022-08-03T09:35:43;23.10;99.90
56332;DHT22;42237;53.340;6.812;2022-08-03T09:38:22;23.10;99.90
56332;DHT22;42237;53.340;6.812;2022-08-03T09:40:51;23.20;99.90
56332;DHT22;42237;53.340;6.812;2022-08-03T09:43:17;23.20;99.90
56332;DHT22;42237;53.340;6.812;2022-08-03T09:45:43;23.30;99.90
56332;DHT22;42237;53.340;6.812;2022-08-03T09:48:22;23.30;99.90
56332;DHT22;42237;53.340;6.812;2022-08-03T09:50:59;23.20;99.90
56332;DHT22;42237;53.340;6.812;2022-08-03T09:53:26;23.30;99.90
56332;DHT22;42237;53.340;6.812;2022-08-03T09:56:02;23.40;99.90
56332;DHT22;42237;53.340;6.812;2022-08-03T09:58:29;23.40;99.90
56332;DHT22;42237;53.340;6.812;2022-08-03T10:01:04;23.40;99.90
56332;DHT22;42237;53.340;6.812;2022-08-03T10:03:38;23.50;99.90
56332;DHT22;42237;53.340;6.812;2022-08-03T10:06:18;23.60;99.90
56332;DHT22;42237;53.340;6.812;2022-08-03T10:08:45;23.80;99.90
56332;DHT22;42237;53.340;6.812;2022-08-03T10:11:11;23.80;99.90
56332;DHT22;42237;53.340;6.812;2022-08-03T10:13:37;24.00;99.90
56332;DHT22;42237;53.340;6.812;2022-08-03T10:16:03;24.00;99.90
56332;DHT22;42237;53.340;6.812;2022-08-03T10:18:30;24.10;99.90
56332;DHT22;42237;53.340;6.812;2022-08-03T10:21:05;24.20;99.90
56332;DHT22;42237;53.340;6.812;2022-08-03T10:23:37;24.20;99.90
56332;DHT22;42237;53.340;6.812;2022-08-03T10:26:06;24.30;99.90
56332;DHT22;42237;53.340;6.812;2022-08-03T10:28:40;24.40;99.90
56332;DHT22;42237;53.340;6.812;2022-08-03T10:31:07;24.40;99.90
56332;DHT22;42237;53.340;6.812;2022-08-03T10:33:37;24.50;99.90
56332;DHT22;42237;53.340;6.812;2022-08-03T10:36:05;24.60;99.90
56332;DHT22;42237;53.340;6.812;2022-08-03T10:38:43;24.60;99.90
56332;DHT22;42237;53.340;6.812;2022-08-03T10:41:11;24.70;99.90
56332;DHT22;42237;53.340;6.812;2022-08-03T10:46:25;24.90;99.90
56332;DHT22;42237;53.340;6.812;2022-08-03T10:48:51;24.90;99.90
56332;DHT22;42237;53.340;6.812;2022-08-03T10:51:19;24.90;99.90
56332;DHT22;42237;53.340;6.812;2022-08-03T10:53:45;25.00;99.90
56332;DHT22;42237;53.340;6.812;2022-08-03T10:59:16;25.10;99.90
56332;DHT22;42237;53.340;6.812;2022-08-03T11:01:50;25.20;99.90
56332;DHT22;42237;53.340;6.812;2022-08-03T11:04:21;25.20;99.90
56332;DHT22;42237;53.340;6.812;2022-08-03T11:09:54;25.40;99.90
56332;DHT22;42237;53.340;6.812;2022-08-03T11:12:38;25.50;99.90
56332;DHT22;42237;53.340;6.812;2022-08-03T11:15:06;25.60;99.90
56332;DHT22;42237;53.340;6.812;2022-08-03T11:17:36;25.60;99.90
56332;DHT22;42237;53.340;6.812;2022-08-03T11:20:06;25.70;99.90
56332;DHT22;42237;53.340;6.812;2022-08-03T11:22:48;25.70;99.90
56332;DHT22;42237;53.340;6.812;2022-08-03T11:25:15;25.80;99.90
56332;DHT22;42237;53.340;6.812;2022-08-03T11:27:41;25.90;99.90
56332;DHT22;42237;53.340;6.812;2022-08-03T11:35:16;26.00;99.90
56332;DHT22;42237;53.340;6.812;2022-08-03T11:40:50;26.10;99.90
56332;DHT22;42237;53.340;6.812;2022-08-03T11:48:35;26.30;99.90
56332;DHT22;42237;53.340;6.812;2022-08-03T11:51:06;26.30;99.90
56332;DHT22;42237;53.340;6.812;2022-08-03T11:53:32;26.40;99.90
56332;DHT22;42237;53.340;6.812;2022-08-03T11:56:00;26.40;99.90
56332;DHT22;42237;53.340;6.812;2022-08-03T11:58:27;26.40;99.90
56332;DHT22;42237;53.340;6.812;2022-08-03T12:01:03;26.50;99.90
56332;DHT22;42237;53.340;6.812;2022-08-03T12:03:32;26.50;99.90
56332;DHT22;42237;53.340;6.812;2022-08-03T12:05:58;26.60;99.90
56332;DHT22;42237;53.340;6.812;2022-08-03T12:10:52;26.60;99.90
56332;DHT22;42237;53.340;6.812;2022-08-03T12:13:20;26.70;99.90
56332;DHT22;42237;53.340;6.812;2022-08-03T12:15:56;26.70;99.90
56332;DHT22;42237;53.340;6.812;2022-08-03T12:18:23;26.80;99.90
56332;DHT22;42237;53.340;6.812;2022-08-03T12:20:51;26.80;99.90
56332;DHT22;42237;53.340;6.812;2022-08-03T12:23:18;26.90;99.90
56332;DHT22;42237;53.340;6.812;2022-08-03T12:25:45;26.90;99.90
56332;DHT22;42237;53.340;6.812;2022-08-03T12:28:19;26.90;99.90
56332;DHT22;42237;53.340;6.812;2022-08-03T12:30:49;27.00;99.90
56332;DHT22;42237;53.340;6.812;2022-08-03T12:33:21;27.10;99.90
56332;DHT22;42237;53.340;6.812;2022-08-03T12:36:07;27.10;99.90
56332;DHT22;42237;53.340;6.812;2022-08-03T12:38:36;27.30;99.90
56332;DHT22;42237;53.340;6.812;2022-08-03T12:41:11;27.10;99.90
56332;DHT22;42237;53.340;6.812;2022-08-03T12:43:50;27.20;99.90
56332;DHT22;42237;53.340;6.812;2022-08-03T12:46:18;27.20;99.90
56332;DHT22;42237;53.340;6.812;2022-08-03T12:49:04;27.30;99.90
56332;DHT22;42237;53.340;6.812;2022-08-03T12:51:33;27.30;99.90
56332;DHT22;42237;53.340;6.812;2022-08-03T12:53:59;27.30;99.90
56332;DHT22;42237;53.340;6.812;2022-08-03T12:56:25;27.30;99.90
56332;DHT22;42237;53.340;6.812;2022-08-03T12:58:51;27.30;99.90
56332;DHT22;42237;53.340;6.812;2022-08-03T13:01:18;27.30;99.90
56332;DHT22;42237;53.340;6.812;2022-08-03T13:03:47;27.40;99.90
56332;DHT22;42237;53.340;6.812;2022-08-03T13:06:15;27.40;99.90
56332;DHT22;42237;53.340;6.812;2022-08-03T13:08:42;27.50;99.90
56332;DHT22;42237;53.340;6.812;2022-08-03T13:13:47;27.50;99.90
56332;DHT22;42237;53.340;6.812;2022-08-03T13:16:13;27.50;99.90
56332;DHT22;42237;53.340;6.812;2022-08-03T13:18:39;27.50;99.90
56332;DHT22;42237;53.340;6.812;2022-08-03T13:21:05;27.50;99.90
56332;DHT22;42237;53.340;6.812;2022-08-03T13:23:31;27.60;99.90
56332;DHT22;42237;53.340;6.812;2022-08-03T13:25:56;27.60;99.90
56332;DHT22;42237;53.340;6.812;2022-08-03T13:28:22;27.60;99.90
56332;DHT22;42237;53.340;6.812;2022-08-03T13:30:51;27.60;99.90
56332;DHT22;42237;53.340;6.812;2022-08-03T13:33:18;27.70;99.90
56332;DHT22;42237;53.340;6.812;2022-08-03T13:35:44;27.70;99.90
56332;DHT22;42237;53.340;6.812;2022-08-03T13:38:10;27.70;99.90
56332;DHT22;42237;53.340;6.812;2022-08-03T13:40:35;27.80;99.90
56332;DHT22;42237;53.340;6.812;2022-08-03T13:43:02;27.70;99.90
56332;DHT22;42237;53.340;6.812;2022-08-03T13:45:28;27.70;99.90
56332;DHT22;42237;53.340;6.812;2022-08-03T13:47:54;27.70;99.90
56332;DHT22;42237;53.340;6.812;2022-08-03T13:50:19;27.70;99.90
56332;DHT22;42237;53.340;6.812;2022-08-03T13:52:46;27.80;99.90
56332;DHT22;42237;53.340;6.812;2022-08-03T13:55:12;27.80;99.90
56332;DHT22;42237;53.340;6.812;2022-08-03T13:57:38;27.80;99.90
56332;DHT22;42237;53.340;6.812;2022-08-03T14:00:05;27.80;99.60
56332;DHT22;42237;53.340;6.812;2022-08-03T14:02:32;27.80;99.60
56332;DHT22;42237;53.340;6.812;2022-08-03T14:04:58;27.80;99.50
56332;DHT22;42237;53.340;6.812;2022-08-03T14:07:23;27.80;99.40
56332;DHT22;42237;53.340;6.812;2022-08-03T14:09:49;27.80;99.50
56332;DHT22;42237;53.340;6.812;2022-08-03T14:12:15;27.90;99.60
56332;DHT22;42237;53.340;6.812;2022-08-03T14:14:40;27.90;99.40
56332;DHT22;42237;53.340;6.812;2022-08-03T14:17:06;28.00;99.00
56332;DHT22;42237;53.340;6.812;2022-08-03T14:19:32;28.00;98.40
56332;DHT22;42237;53.340;6.812;2022-08-03T14:21:58;28.00;98.50
56332;DHT22;42237;53.340;6.812;2022-08-03T14:24:23;28.00;98.50
56332;DHT22;42237;53.340;6.812;2022-08-03T14:26:51;28.10;97.50
56332;DHT22;42237;53.340;6.812;2022-08-03T14:29:17;28.20;97.50
56332;DHT22;42237;53.340;6.812;2022-08-03T14:31:43;28.20;97.70
56332;DHT22;42237;53.340;6.812;2022-08-03T14:34:08;28.30;97.80
56332;DHT22;42237;53.340;6.812;2022-08-03T14:36:34;28.40;96.90
56332;DHT22;42237;53.340;6.812;2022-08-03T14:39:00;28.40;96.30
56332;DHT22;42237;53.340;6.812;2022-08-03T14:41:26;28.40;95.90
56332;DHT22;42237;53.340;6.812;2022-08-03T14:43:52;28.40;95.80
56332;DHT22;42237;53.340;6.812;2022-08-03T14:46:17;28.50;96.00
56332;DHT22;42237;53.340;6.812;2022-08-03T14:48:43;28.60;96.10
56332;DHT22;42237;53.340;6.812;2022-08-03T14:51:09;28.60;95.40
56332;DHT22;42237;53.340;6.812;2022-08-03T14:53:34;28.70;94.70
56332;DHT22;42237;53.340;6.812;2022-08-03T14:56:00;28.80;94.90
56332;DHT22;42237;53.340;6.812;2022-08-03T14:58:26;28.80;94.70
56332;DHT22;42237;53.340;6.812;2022-08-03T15:00:53;28.90;94.40
56332;DHT22;42237;53.340;6.812;2022-08-03T15:03:24;29.00;94.30
56332;DHT22;42237;53.340;6.812;2022-08-03T15:05:55;28.80;93.70
56332;DHT22;42237;53.340;6.812;2022-08-03T15:08:22;28.80;93.40
56332;DHT22;42237;53.340;6.812;2022-08-03T15:10:48;28.70;93.30
56332;DHT22;42237;53.340;6.812;2022-08-03T15:13:15;28.70;93.70
56332;DHT22;42237;53.340;6.812;2022-08-03T15:15:41;28.80;94.60
56332;DHT22;42237;53.340;6.812;2022-08-03T15:18:07;28.80;94.30
56332;DHT22;42237;53.340;6.812;2022-08-03T15:20:33;28.90;94.00
56332;DHT22;42237;53.340;6.812;2022-08-03T15:22:59;29.00;93.20
56332;DHT22;42237;53.340;6.812;2022-08-03T15:25:24;29.20;93.00
56332;DHT22;42237;53.340;6.812;2022-08-03T15:27:53;29.30;92.90
56332;DHT22;42237;53.340;6.812;2022-08-03T15:30:19;29.40;92.50
56332;DHT22;42237;53.340;6.812;2022-08-03T15:32:44;29.40;92.10
56332;DHT22;42237;53.340;6.812;2022-08-03T15:35:10;29.50;91.80
56332;DHT22;42237;53.340;6.812;2022-08-03T15:37:36;29.70;92.10
56332;DHT22;42237;53.340;6.812;2022-08-03T15:40:02;29.80;91.90
56332;DHT22;42237;53.340;6.812;2022-08-03T15:42:29;30.00;91.80
56332;DHT22;42237;53.340;6.812;2022-08-03T15:44:55;30.00;91.30
56332;DHT22;42237;53.340;6.812;2022-08-03T15:47:21;30.00;90.60
56332;DHT22;42237;53.340;6.812;2022-08-03T15:49:50;30.00;88.80
56332;DHT22;42237;53.340;6.812;2022-08-03T15:52:15;29.80;86.70
56332;DHT22;42237;53.340;6.812;2022-08-03T15:54:41;29.80;85.10
56332;DHT22;42237;53.340;6.812;2022-08-03T15:57:10;29.60;84.20
56332;DHT22;42237;53.340;6.812;2022-08-03T15:59:35;29.50;84.10
56332;DHT22;42237;53.340;6.812;2022-08-03T16:02:01;29.40;83.40
56332;DHT22;42237;53.340;6.812;2022-08-03T16:04:27;29.30;82.90
56332;DHT22;42237;53.340;6.812;2022-08-03T16:06:55;29.20;82.30
56332;DHT22;42237;53.340;6.812;2022-08-03T16:09:21;29.10;81.10
56332;DHT22;42237;53.340;6.812;2022-08-03T16:11:47;29.00;81.40
56332;DHT22;42237;53.340;6.812;2022-08-03T16:14:12;28.80;86.90
56332;DHT22;42237;53.340;6.812;2022-08-03T16:16:38;28.60;91.60